createdAt,value
2019-04-06T00:01:06.764Z,5.50
2019-04-06T00:03:35.760Z,5.50
2019-04-06T00:06:04.851Z,5.60
2019-04-06T00:08:33.782Z,5.50
2019-04-06T00:11:02.728Z,5.40
2019-04-06T00:13:32.896Z,5.30
2019-04-06T00:16:03.783Z,5.30
2019-04-06T00:18:32.900Z,5.40
2019-04-06T00:21:03.118Z,5.30
2019-04-06T00:23:32.154Z,5.20
2019-04-06T00:26:01.113Z,5.20
2019-04-06T00:28:30.179Z,5.20
2019-04-06T00:31:17.300Z,5.20
2019-04-06T00:33:46.352Z,5.20
2019-04-06T00:36:15.436Z,5.20
2019-04-06T00:38:44.313Z,5.20
2019-04-06T00:41:13.335Z,5.20
2019-04-06T00:43:42.372Z,5.10
2019-04-06T00:46:11.692Z,5.10
2019-04-06T00:48:40.724Z,5.00
2019-04-06T00:51:09.732Z,5.00
2019-04-06T00:53:38.760Z,5.10
2019-04-06T00:56:07.676Z,5.00
2019-04-06T00:58:36.633Z,5.00
2019-04-06T01:01:05.822Z,5.00
2019-04-06T01:03:34.892Z,5.00
2019-04-06T01:06:03.916Z,4.90
2019-04-06T01:08:32.900Z,4.80
2019-04-06T01:11:02.572Z,4.90
2019-04-06T01:13:31.536Z,4.80
2019-04-06T01:16:00.568Z,4.80
2019-04-06T01:18:29.560Z,4.90
2019-04-06T01:20:58.789Z,4.90
2019-04-06T01:23:27.718Z,4.80
2019-04-06T01:26:06.688Z,4.70
2019-04-06T01:28:27.532Z,4.70
2019-04-06T01:30:56.473Z,4.70
2019-04-06T01:33:25.885Z,4.60
2019-04-06T01:35:55.006Z,4.50
2019-04-06T01:38:24.243Z,4.60
2019-04-06T01:40:53.464Z,4.50
2019-04-06T01:43:22.689Z,4.60
2019-04-06T01:45:51.684Z,4.60
2019-04-06T01:48:21.012Z,4.70
2019-04-06T01:50:50.579Z,4.60
2019-04-06T01:53:19.766Z,4.70
2019-04-06T01:55:48.609Z,4.70
2019-04-06T01:58:17.554Z,4.70
2019-04-06T02:01:17.940Z,4.50
2019-04-06T02:03:46.980Z,4.60
2019-04-06T02:06:16.072Z,4.60
2019-04-06T02:08:45.125Z,4.40
2019-04-06T02:11:14.192Z,4.40
2019-04-06T02:13:43.288Z,4.30
2019-04-06T02:16:12.357Z,4.30
2019-04-06T02:18:41.545Z,4.30
2019-04-06T02:21:10.752Z,4.30
2019-04-06T02:23:41.273Z,4.30
2019-04-06T02:26:10.444Z,4.30
2019-04-06T02:28:42.829Z,4.30
2019-04-06T02:31:15.939Z,4.30
2019-04-06T02:34:09.703Z,4.40
2019-04-06T02:37:00.320Z,4.40
2019-04-06T02:39:54.690Z,4.20
2019-04-06T02:42:42.905Z,4.20
2019-04-06T02:45:12.117Z,4.20
2019-04-06T02:47:41.074Z,4.10
2019-04-06T02:50:10.201Z,4.10
2019-04-06T02:52:39.183Z,4.10
2019-04-06T02:55:08.218Z,4.10
2019-04-06T02:57:37.207Z,4.10
2019-04-06T03:00:07.069Z,4.10
2019-04-06T03:02:36.145Z,4.10
2019-04-06T03:05:05.887Z,4.00
2019-04-06T03:07:34.776Z,4.00
2019-04-06T03:10:03.846Z,3.90
2019-04-06T03:12:32.800Z,3.90
2019-04-06T03:15:01.804Z,4.00
2019-04-06T03:17:30.733Z,3.90
2019-04-06T03:19:59.816Z,3.90
2019-04-06T03:22:28.849Z,3.90
2019-04-06T03:24:57.927Z,4.00
2019-04-06T03:27:26.913Z,4.10
2019-04-06T03:29:58.478Z,4.20
2019-04-06T03:32:26.820Z,4.10
2019-04-06T03:34:55.870Z,4.10
2019-04-06T03:37:24.750Z,4.00
2019-04-06T03:39:53.751Z,3.90
2019-04-06T03:42:22.682Z,3.90
2019-04-06T03:44:51.637Z,3.80
2019-04-06T03:47:20.664Z,3.80
2019-04-06T03:49:49.625Z,3.80
2019-04-06T03:52:18.597Z,3.70
2019-04-06T03:54:47.638Z,3.70
2019-04-06T03:57:17.248Z,3.60
2019-04-06T03:59:46.234Z,3.70
2019-04-06T04:02:15.196Z,3.60
2019-04-06T04:04:44.514Z,3.60
2019-04-06T04:07:13.390Z,3.60
2019-04-06T04:09:42.760Z,3.60
2019-04-06T04:12:11.741Z,3.60
2019-04-06T04:14:40.773Z,3.60
2019-04-06T04:17:29.085Z,3.70
2019-04-06T04:19:58.096Z,3.60
2019-04-06T04:22:27.081Z,3.60
2019-04-06T04:24:56.234Z,3.50
2019-04-06T04:27:29.288Z,3.60
2019-04-06T04:29:55.758Z,3.70
2019-04-06T04:32:24.711Z,3.50
2019-04-06T04:34:53.903Z,3.60
2019-04-06T04:37:22.818Z,3.60
2019-04-06T04:39:52.271Z,3.50
2019-04-06T04:42:21.289Z,3.50
2019-04-06T04:44:50.292Z,3.50
2019-04-06T04:47:19.250Z,3.40
2019-04-06T04:49:48.221Z,3.40
2019-04-06T04:52:17.161Z,3.40
2019-04-06T04:54:46.079Z,3.40
2019-04-06T04:57:14.976Z,3.40
2019-04-06T04:59:44.010Z,3.30
2019-04-06T05:02:12.953Z,3.30
2019-04-06T05:04:42.184Z,3.30
2019-04-06T05:07:11.227Z,3.30
2019-04-06T05:09:40.358Z,3.30
2019-04-06T05:12:09.324Z,3.30
2019-04-06T05:15:02.496Z,3.30
2019-04-06T05:17:31.498Z,3.20
2019-04-06T05:20:00.446Z,3.30
2019-04-06T05:22:29.565Z,3.30
2019-04-06T05:24:58.776Z,3.40
2019-04-06T05:27:27.773Z,3.20
2019-04-06T05:29:56.707Z,3.10
2019-04-06T05:32:25.702Z,3.20
2019-04-06T05:34:54.722Z,3.30
2019-04-06T05:37:23.865Z,3.50
2019-04-06T05:39:52.916Z,3.50
2019-04-06T05:42:21.945Z,3.50
2019-04-06T05:44:50.896Z,3.50
2019-04-06T05:47:19.916Z,3.50
2019-04-06T05:49:48.940Z,3.70
2019-04-06T05:52:17.900Z,3.80
2019-04-06T05:54:47.217Z,4.00
2019-04-06T05:57:16.224Z,4.10
2019-04-06T05:59:45.273Z,4.30
2019-04-06T06:02:14.523Z,4.50
2019-04-06T06:04:43.396Z,4.60
2019-04-06T06:07:12.321Z,4.80
2019-04-06T06:09:41.226Z,4.90
2019-04-06T06:12:11.809Z,4.90
2019-04-06T06:14:40.872Z,4.90
2019-04-06T06:17:09.864Z,5.00
2019-04-06T06:19:38.968Z,5.10
2019-04-06T06:22:08.004Z,5.10
2019-04-06T06:24:37.217Z,5.20
2019-04-06T06:27:06.188Z,5.20
2019-04-06T06:29:35.153Z,5.20
2019-04-06T06:32:04.263Z,5.40
2019-04-06T06:34:33.346Z,5.40
2019-04-06T06:37:02.389Z,5.60
2019-04-06T06:39:31.529Z,5.80
2019-04-06T06:42:00.511Z,6.00
2019-04-06T06:44:29.577Z,6.20
2019-04-06T06:46:58.541Z,6.10
2019-04-06T06:49:27.716Z,6.30
2019-04-06T06:51:56.729Z,6.30
2019-04-06T06:54:25.745Z,6.30
2019-04-06T06:56:54.704Z,6.20
2019-04-06T06:59:23.690Z,6.10
2019-04-06T07:01:52.789Z,6.00
2019-04-06T07:04:21.761Z,6.20
2019-04-06T07:06:50.756Z,5.90
2019-04-06T07:09:19.831Z,5.70
2019-04-06T07:11:48.803Z,5.70
2019-04-06T07:14:17.682Z,6.00
2019-04-06T07:16:46.912Z,6.10
2019-04-06T07:19:16.038Z,6.00
2019-04-06T07:21:45.188Z,5.90
2019-04-06T07:24:14.353Z,5.90
2019-04-06T07:26:43.725Z,5.70
2019-04-06T07:29:12.696Z,5.80
2019-04-06T07:31:41.717Z,6.10
2019-04-06T07:34:10.686Z,6.30
2019-04-06T07:36:39.877Z,6.30
2019-04-06T07:39:08.932Z,6.50
2019-04-06T07:41:38.346Z,6.60
2019-04-06T07:44:07.332Z,6.50
2019-04-06T07:46:36.457Z,6.40
2019-04-06T07:49:09.112Z,6.40
2019-04-06T07:51:36.228Z,6.60
2019-04-06T07:54:05.256Z,6.40
2019-04-06T07:56:34.320Z,6.60
2019-04-06T07:59:03.318Z,7.00
2019-04-06T08:01:32.410Z,6.90
2019-04-06T08:04:01.556Z,6.90
2019-04-06T08:06:31.691Z,7.00
2019-04-06T08:09:00.861Z,7.30
2019-04-06T08:11:29.736Z,7.50
2019-04-06T08:13:58.860Z,7.60
2019-04-06T08:16:28.162Z,7.50
2019-04-06T08:18:57.349Z,7.60
2019-04-06T08:21:26.544Z,7.80
2019-04-06T08:23:55.561Z,8.10
2019-04-06T08:26:25.141Z,8.20
2019-04-06T08:29:00.713Z,8.60
2019-04-06T08:31:24.851Z,8.70
2019-04-06T08:33:54.468Z,8.50
2019-04-06T08:36:23.389Z,8.40
2019-04-06T08:38:52.344Z,8.40
2019-04-06T08:41:21.433Z,8.50
2019-04-06T08:43:50.384Z,8.60
2019-04-06T08:46:19.516Z,8.70
2019-04-06T08:48:48.750Z,9.00
2019-04-06T08:51:17.794Z,9.00
2019-04-06T08:53:46.775Z,8.80
2019-04-06T08:56:15.800Z,9.10
2019-04-06T08:58:44.788Z,9.40
2019-04-06T09:01:13.805Z,9.40
2019-04-06T09:03:42.969Z,9.60
2019-04-06T09:06:11.989Z,9.30
2019-04-06T09:08:41.181Z,9.30
2019-04-06T09:11:16.920Z,9.10
2019-04-06T09:13:45.951Z,9.00
2019-04-06T09:16:14.969Z,9.10
2019-04-06T09:18:43.976Z,9.40
2019-04-06T09:21:13.001Z,9.80
2019-04-06T09:23:42.046Z,9.60
2019-04-06T09:26:11.196Z,9.40
2019-04-06T09:28:40.222Z,9.40
2019-04-06T09:31:09.265Z,9.70
2019-04-06T09:33:38.649Z,9.70
2019-04-06T09:36:07.653Z,9.80
2019-04-06T09:38:36.766Z,10.00
2019-04-06T09:41:05.823Z,10.10
2019-04-06T09:43:34.932Z,10.20
2019-04-06T09:46:32.341Z,10.30
2019-04-06T09:49:20.295Z,10.50
2019-04-06T09:51:57.196Z,10.80
2019-04-06T09:54:34.472Z,11.00
2019-04-06T09:57:22.626Z,11.00
2019-04-06T10:00:14.067Z,11.10
2019-04-06T10:03:02.146Z,11.20
2019-04-06T10:05:48.813Z,11.20
2019-04-06T10:08:36.791Z,11.60
2019-04-06T10:11:23.650Z,12.80
2019-04-06T10:14:17.926Z,13.40
2019-04-06T10:17:04.874Z,14.30
2019-04-06T10:19:54.301Z,13.90
2019-04-06T10:22:56.744Z,14.70
2019-04-06T10:25:53.553Z,14.10
2019-04-06T10:28:51.008Z,13.60
2019-04-06T10:31:48.181Z,13.70
2019-04-06T10:34:48.117Z,12.80
2019-04-06T10:37:34.853Z,12.30
2019-04-06T10:40:32.159Z,12.60
2019-04-06T10:43:35.516Z,12.40
2019-04-06T10:46:21.012Z,12.80
2019-04-06T10:48:55.921Z,12.50
2019-04-06T10:51:41.320Z,12.70
2019-04-06T10:54:23.259Z,12.90
2019-04-06T10:57:02.679Z,12.50
2019-04-06T10:59:42.295Z,12.70
2019-04-06T11:02:29.115Z,12.90
2019-04-06T11:05:10.706Z,12.60
2019-04-06T11:07:47.633Z,13.20
2019-04-06T11:10:34.474Z,13.30
2019-04-06T11:13:11.565Z,13.20
2019-04-06T11:15:47.419Z,13.20
2019-04-06T11:18:34.904Z,13.80
2019-04-06T11:21:41.428Z,13.70
2019-04-06T11:24:20.883Z,13.50
2019-04-06T11:27:10.214Z,13.30
2019-04-06T11:29:48.656Z,13.20
2019-04-06T11:32:39.656Z,12.80
2019-04-06T11:35:16.032Z,12.60
2019-04-06T11:38:07.272Z,12.80
2019-04-06T11:41:04.794Z,13.00
2019-04-06T11:44:04.728Z,12.80
2019-04-06T11:46:52.797Z,13.00
2019-04-06T11:49:35.899Z,13.60
2019-04-06T11:52:17.785Z,13.40
2019-04-06T11:55:02.881Z,13.40
2019-04-06T11:57:55.293Z,13.40
2019-04-06T12:00:43.472Z,13.30
2019-04-06T12:03:20.694Z,13.20
2019-04-06T12:05:56.193Z,13.10
2019-04-06T12:08:56.666Z,13.00
2019-04-06T12:11:50.565Z,12.80
2019-04-06T12:14:34.361Z,13.00
2019-04-06T12:17:22.393Z,13.00
2019-04-06T12:20:09.615Z,13.00
2019-04-06T12:23:06.837Z,13.10
2019-04-06T12:26:00.732Z,13.00
2019-04-06T12:28:48.808Z,13.10
2019-04-06T12:31:42.589Z,13.10
2019-04-06T12:34:30.718Z,13.20
2019-04-06T12:37:17.429Z,13.20
2019-04-06T12:40:04.413Z,13.30
2019-04-06T12:42:49.849Z,13.60
2019-04-06T12:45:40.721Z,13.50
2019-04-06T12:48:31.635Z,13.70
2019-04-06T12:51:13.861Z,13.60
2019-04-06T12:54:11.962Z,13.50
2019-04-06T12:56:51.048Z,13.80
2019-04-06T12:59:40.618Z,13.90
2019-04-06T13:02:15.438Z,13.90
2019-04-06T13:05:15.577Z,13.90
2019-04-06T13:07:55.605Z,13.80
2019-04-06T13:10:30.197Z,14.00
2019-04-06T13:13:20.922Z,14.10
2019-04-06T13:16:11.938Z,14.30
2019-04-06T13:19:05.963Z,14.50
2019-04-06T13:22:09.123Z,14.60
2019-04-06T13:24:57.209Z,14.50
2019-04-06T13:27:36.438Z,14.30
2019-04-06T13:30:43.980Z,14.60
2019-04-06T13:33:27.302Z,14.70
2019-04-06T13:36:06.783Z,15.10
2019-04-06T13:38:54.442Z,15.40
2019-04-06T13:41:34.845Z,15.60
2019-04-06T13:44:25.854Z,15.40
2019-04-06T13:47:20.353Z,15.30
2019-04-06T13:50:26.654Z,15.70
2019-04-06T13:53:02.473Z,15.90
2019-04-06T13:55:50.704Z,15.70
2019-04-06T13:58:38.632Z,15.60
2019-04-06T14:01:17.914Z,15.50
2019-04-06T14:04:06.019Z,15.60
2019-04-06T14:06:41.853Z,15.40
2019-04-06T14:09:28.668Z,14.90
2019-04-06T14:12:06.950Z,14.90
2019-04-06T14:15:06.816Z,14.80
2019-04-06T14:18:10.335Z,14.60
2019-04-06T14:20:57.249Z,14.60
2019-04-06T14:23:45.288Z,14.90
2019-04-06T14:26:42.360Z,14.70
2019-04-06T14:29:21.724Z,15.00
2019-04-06T14:32:07.711Z,15.00
2019-04-06T14:34:48.012Z,15.10
2019-04-06T14:37:39.191Z,15.30
2019-04-06T14:40:26.680Z,15.30
2019-04-06T14:43:21.035Z,15.30
2019-04-06T14:46:07.840Z,15.50
2019-04-06T14:49:12.043Z,15.90
2019-04-06T14:51:43.516Z,16.10
2019-04-06T14:54:18.977Z,15.90
2019-04-06T14:57:08.184Z,15.80
2019-04-06T14:59:54.802Z,16.10
2019-04-06T15:02:45.873Z,16.80
2019-04-06T15:05:33.232Z,17.30
2019-04-06T15:08:13.615Z,17.20
2019-04-06T15:11:00.701Z,16.80
2019-04-06T15:13:51.446Z,16.50
2019-04-06T15:16:34.521Z,16.00
2019-04-06T15:19:14.985Z,16.00
2019-04-06T15:21:52.750Z,15.80
2019-04-06T15:24:34.372Z,16.30
2019-04-06T15:27:23.588Z,16.80
2019-04-06T15:30:10.268Z,16.80
2019-04-06T15:32:58.299Z,16.70
2019-04-06T15:35:49.468Z,16.60
2019-04-06T15:38:25.566Z,16.00
2019-04-06T15:41:05.488Z,15.80
2019-04-06T15:43:56.829Z,15.70
2019-04-06T15:46:34.935Z,15.80
2019-04-06T15:49:16.501Z,15.80
2019-04-06T15:52:10.714Z,15.90
2019-04-06T15:54:57.860Z,15.60
2019-04-06T15:57:35.235Z,15.70
2019-04-06T16:00:15.812Z,15.60
2019-04-06T16:03:12.205Z,15.70
2019-04-06T16:05:47.904Z,15.70
2019-04-06T16:08:41.973Z,15.80
2019-04-06T16:11:29.389Z,15.70
2019-04-06T16:14:20.505Z,15.50
2019-04-06T16:17:02.016Z,15.40
2019-04-06T16:20:08.524Z,15.40
2019-04-06T16:22:57.443Z,15.50
2019-04-06T16:25:33.263Z,15.60
2019-04-06T16:28:10.807Z,15.50
2019-04-06T16:31:08.115Z,15.50
2019-04-06T16:34:02.266Z,15.60
2019-04-06T16:36:53.074Z,15.70
2019-04-06T16:39:44.876Z,15.70
2019-04-06T16:42:23.392Z,15.60
2019-04-06T16:45:00.849Z,16.00
2019-04-06T16:47:41.367Z,16.30
2019-04-06T16:50:20.853Z,16.30
2019-04-06T16:53:09.272Z,16.20
2019-04-06T16:56:01.337Z,16.00
2019-04-06T16:59:02.293Z,15.80
2019-04-06T17:01:47.066Z,16.10
2019-04-06T17:04:23.659Z,16.10
2019-04-06T17:07:16.769Z,16.00
2019-04-06T17:09:55.875Z,15.90
2019-04-06T17:13:02.200Z,15.80
2019-04-06T17:15:53.793Z,15.60
2019-04-06T17:18:54.371Z,15.60
2019-04-06T17:21:38.109Z,15.60
2019-04-06T17:24:29.322Z,15.50
2019-04-06T17:27:20.530Z,15.40
2019-04-06T17:30:11.965Z,15.40
2019-04-06T17:33:12.633Z,15.30
2019-04-06T17:36:06.510Z,15.20
2019-04-06T17:38:54.718Z,15.10
2019-04-06T17:41:55.397Z,15.20
2019-04-06T17:44:50.047Z,15.00
2019-04-06T17:47:30.644Z,15.00
2019-04-06T17:50:12.152Z,14.70
2019-04-06T17:52:58.900Z,14.60
2019-04-06T17:55:46.105Z,14.60
2019-04-06T17:58:29.833Z,14.40
2019-04-06T18:01:08.130Z,14.20
2019-04-06T18:03:59.697Z,14.50
2019-04-06T18:06:36.816Z,14.50
2019-04-06T18:09:44.777Z,14.40
2019-04-06T18:12:31.669Z,14.40
2019-04-06T18:15:00.935Z,14.20
2019-04-06T18:17:30.065Z,14.10
2019-04-06T18:19:59.500Z,14.00
2019-04-06T18:22:28.676Z,14.00
2019-04-06T18:24:57.971Z,13.90
2019-04-06T18:27:27.447Z,13.80
2019-04-06T18:29:56.755Z,13.80
2019-04-06T18:32:44.935Z,13.60
2019-04-06T18:35:14.261Z,13.50
2019-04-06T18:37:52.507Z,13.30
2019-04-06T18:40:26.420Z,13.10
2019-04-06T18:42:56.211Z,13.00
2019-04-06T18:45:26.443Z,12.90
2019-04-06T18:47:55.853Z,12.80
2019-04-06T18:50:34.401Z,13.10
2019-04-06T18:52:55.901Z,13.20
2019-04-06T18:55:25.439Z,13.20
2019-04-06T18:57:54.453Z,13.10
2019-04-06T19:00:24.211Z,13.00
2019-04-06T19:02:54.281Z,13.00
2019-04-06T19:05:24.179Z,12.90
2019-04-06T19:07:53.153Z,13.00
2019-04-06T19:10:22.409Z,12.90
2019-04-06T19:12:51.727Z,12.80
2019-04-06T19:15:20.920Z,12.70
2019-04-06T19:17:50.073Z,12.70
2019-04-06T19:20:19.053Z,12.70
2019-04-06T19:22:48.120Z,12.60
2019-04-06T19:25:17.236Z,12.50
2019-04-06T19:27:46.580Z,12.60
2019-04-06T19:30:15.646Z,12.60
2019-04-06T19:32:45.041Z,12.50
2019-04-06T19:35:14.408Z,12.40
2019-04-06T19:37:43.934Z,12.40
2019-04-06T19:40:13.447Z,12.20
2019-04-06T19:42:42.595Z,12.00
2019-04-06T19:45:11.708Z,11.90
2019-04-06T19:47:40.881Z,11.90
2019-04-06T19:50:10.578Z,12.00
2019-04-06T19:52:40.343Z,12.00
2019-04-06T19:55:10.311Z,12.00
2019-04-06T19:57:39.442Z,11.80
2019-04-06T20:00:09.077Z,11.60
2019-04-06T20:02:38.412Z,11.60
2019-04-06T20:05:07.660Z,11.70
2019-04-06T20:07:37.025Z,11.80
2019-04-06T20:10:08.587Z,11.70
2019-04-06T20:12:37.869Z,11.60
2019-04-06T20:15:06.935Z,11.60
2019-04-06T20:17:35.995Z,11.30
2019-04-06T20:20:05.764Z,11.10
2019-04-06T20:22:35.306Z,10.90
2019-04-06T20:25:04.867Z,10.80
2019-04-06T20:27:34.275Z,11.00
2019-04-06T20:30:03.739Z,11.20
2019-04-06T20:32:32.887Z,11.00
2019-04-06T20:35:04.194Z,11.20
2019-04-06T20:37:33.608Z,11.00
2019-04-06T20:40:02.681Z,10.90
2019-04-06T20:42:31.778Z,10.80
2019-04-06T20:45:00.828Z,10.60
2019-04-06T20:47:29.946Z,10.60
2019-04-06T20:49:59.025Z,10.40
2019-04-06T20:52:28.402Z,10.30
2019-04-06T20:54:57.955Z,10.30
2019-04-06T20:57:27.507Z,10.30
2019-04-06T20:59:56.887Z,10.20
2019-04-06T21:02:25.937Z,10.20
2019-04-06T21:04:55.132Z,10.20
2019-04-06T21:07:24.292Z,10.40
2019-04-06T21:09:53.884Z,10.50
2019-04-06T21:12:23.655Z,10.50
2019-04-06T21:14:53.672Z,10.50
2019-04-06T21:17:23.505Z,10.50
2019-04-06T21:19:52.634Z,10.30
2019-04-06T21:22:21.661Z,10.20
2019-04-06T21:24:50.743Z,10.00
2019-04-06T21:27:19.758Z,9.90
2019-04-06T21:29:48.752Z,9.90
2019-04-06T21:32:18.062Z,9.90
2019-04-06T21:34:47.112Z,9.80
2019-04-06T21:37:16.269Z,9.80
2019-04-06T21:39:45.418Z,10.00
2019-04-06T21:42:14.666Z,9.80
2019-04-06T21:44:44.072Z,9.70
2019-04-06T21:47:13.223Z,9.70
2019-04-06T21:49:42.504Z,9.80
2019-04-06T21:52:12.216Z,9.60
2019-04-06T21:54:42.076Z,9.50
2019-04-06T21:57:11.499Z,9.50
2019-04-06T21:59:40.627Z,9.60
2019-04-06T22:02:09.783Z,9.50
2019-04-06T22:04:39.116Z,9.40
2019-04-06T22:07:08.748Z,9.40
2019-04-06T22:09:38.040Z,9.30
2019-04-06T22:12:07.258Z,9.30
2019-04-06T22:14:36.473Z,9.20
2019-04-06T22:17:06.282Z,9.20
2019-04-06T22:19:35.954Z,9.20
2019-04-06T22:22:05.317Z,9.10
2019-04-06T22:24:34.531Z,9.00
2019-04-06T22:27:03.483Z,9.00
2019-04-06T22:29:33.133Z,9.00
2019-04-06T22:32:02.381Z,9.10
2019-04-06T22:34:38.726Z,9.20
2019-04-06T22:37:02.690Z,9.10
2019-04-06T22:39:31.670Z,9.10
2019-04-06T22:42:00.628Z,9.10
2019-04-06T22:44:30.151Z,9.20
2019-04-06T22:46:59.417Z,9.10
2019-04-06T22:49:28.528Z,9.00
2019-04-06T22:51:57.525Z,9.00
2019-04-06T22:54:26.701Z,9.10
2019-04-06T22:56:55.675Z,9.10
2019-04-06T22:59:24.681Z,9.00
2019-04-06T23:01:53.724Z,9.10
2019-04-06T23:04:47.224Z,8.90
2019-04-06T23:07:15.070Z,8.70
2019-04-06T23:09:44.224Z,8.70
2019-04-06T23:12:13.193Z,8.60
2019-04-06T23:14:42.173Z,8.60
2019-04-06T23:17:11.276Z,8.40
2019-04-06T23:19:40.292Z,8.40
2019-04-06T23:22:10.289Z,8.40
2019-04-06T23:24:39.759Z,8.50
2019-04-06T23:27:08.723Z,8.70
2019-04-06T23:29:38.024Z,8.70
2019-04-06T23:32:07.989Z,8.70
2019-04-06T23:34:37.162Z,8.70
2019-04-06T23:37:06.247Z,8.60
2019-04-06T23:39:35.424Z,8.40
2019-04-06T23:42:04.634Z,8.40
2019-04-06T23:44:33.880Z,8.50
2019-04-06T23:47:03.537Z,8.50
2019-04-06T23:49:32.900Z,8.60
2019-04-06T23:52:02.542Z,8.50
2019-04-06T23:54:31.917Z,8.30
2019-04-06T23:57:01.217Z,8.30
2019-04-06T23:59:30.198Z,8.20
